createdAt,value
2023-07-29T00:01:27.784Z,19.59
2023-07-29T00:03:55.787Z,19.62
2023-07-29T00:06:23.736Z,19.77
2023-07-29T00:08:53.139Z,19.87
2023-07-29T00:11:21.219Z,19.81
2023-07-29T00:13:51.158Z,19.74
2023-07-29T00:16:19.285Z,19.69
2023-07-29T00:18:47.297Z,19.71
2023-07-29T00:21:15.227Z,19.77
2023-07-29T00:23:43.158Z,19.80
2023-07-29T00:26:12.406Z,19.80
2023-07-29T00:28:40.364Z,19.75
2023-07-29T00:31:08.277Z,19.66
2023-07-29T00:33:36.487Z,19.64
2023-07-29T00:36:04.709Z,19.75
2023-07-29T00:38:32.613Z,19.75
2023-07-29T00:41:01.505Z,19.75
2023-07-29T00:43:30.790Z,19.74
2023-07-29T00:45:59.021Z,19.81
2023-07-29T00:48:27.980Z,19.83
2023-07-29T00:50:56.380Z,19.84
2023-07-29T00:53:24.264Z,19.78
2023-07-29T00:55:52.207Z,19.81
2023-07-29T00:58:20.414Z,19.78
2023-07-29T01:00:50.920Z,19.73
2023-07-29T01:03:19.493Z,19.71
2023-07-29T01:05:58.794Z,19.59
2023-07-29T01:08:35.485Z,19.50
2023-07-29T01:11:10.667Z,19.53
2023-07-29T01:13:46.684Z,19.46
2023-07-29T01:16:21.400Z,19.42
2023-07-29T01:18:50.648Z,19.39
2023-07-29T01:21:19.436Z,19.49
2023-07-29T01:23:48.774Z,19.47
2023-07-29T01:26:16.629Z,19.45
2023-07-29T01:28:45.250Z,19.43
2023-07-29T01:31:25.588Z,19.46
2023-07-29T01:33:59.897Z,19.49
2023-07-29T01:36:31.530Z,19.50
2023-07-29T01:39:02.574Z,19.42
2023-07-29T01:41:31.274Z,19.43
2023-07-29T01:43:59.925Z,19.52
2023-07-29T01:46:28.115Z,19.45
2023-07-29T01:48:56.021Z,19.45
2023-07-29T01:51:23.939Z,19.53
2023-07-29T01:53:52.060Z,19.50
2023-07-29T01:56:21.517Z,19.49
2023-07-29T01:58:55.838Z,19.46
2023-07-29T02:01:23.969Z,19.47
2023-07-29T02:03:56.235Z,19.39
2023-07-29T02:06:25.323Z,19.32
2023-07-29T02:08:53.397Z,19.39
2023-07-29T02:11:28.324Z,19.37
2023-07-29T02:13:57.181Z,19.36
2023-07-29T02:16:25.306Z,19.33
2023-07-29T02:18:56.160Z,19.27
2023-07-29T02:21:24.607Z,19.19
2023-07-29T02:23:52.568Z,19.15
2023-07-29T02:26:22.138Z,19.15
2023-07-29T02:28:50.037Z,19.11
2023-07-29T02:31:19.080Z,19.06
2023-07-29T02:33:47.713Z,19.06
2023-07-29T02:36:21.541Z,19.06
2023-07-29T02:38:49.756Z,19.12
2023-07-29T02:41:17.894Z,19.05
2023-07-29T02:43:50.876Z,18.98
2023-07-29T02:46:18.958Z,18.98
2023-07-29T02:48:47.030Z,19.02
2023-07-29T02:51:14.960Z,19.02
2023-07-29T02:53:42.872Z,18.92
2023-07-29T02:56:11.365Z,18.88
2023-07-29T02:58:39.597Z,18.87
2023-07-29T03:01:10.318Z,18.89
2023-07-29T03:03:39.333Z,18.79
2023-07-29T03:06:09.216Z,18.71
2023-07-29T03:08:37.864Z,18.72
2023-07-29T03:11:08.431Z,18.69
2023-07-29T03:13:36.482Z,18.67
2023-07-29T03:16:08.468Z,18.67
2023-07-29T03:18:38.347Z,18.67
2023-07-29T03:21:06.832Z,18.65
2023-07-29T03:23:35.823Z,18.60
2023-07-29T03:26:11.442Z,18.60
2023-07-29T03:28:41.825Z,18.52
2023-07-29T03:31:10.206Z,18.61
2023-07-29T03:33:40.034Z,18.71
2023-07-29T03:36:08.165Z,18.78
2023-07-29T03:38:36.575Z,18.94
2023-07-29T03:41:04.978Z,19.01
2023-07-29T03:43:33.054Z,18.99
2023-07-29T03:46:03.235Z,19.02
2023-07-29T03:48:32.335Z,19.09
2023-07-29T03:51:01.846Z,19.15
2023-07-29T03:53:29.768Z,19.16
2023-07-29T03:55:57.724Z,19.15
2023-07-29T03:58:25.588Z,19.20
2023-07-29T04:00:53.505Z,19.12
2023-07-29T04:03:21.711Z,18.81
2023-07-29T04:05:50.477Z,18.88
2023-07-29T04:08:21.479Z,18.92
2023-07-29T04:10:50.409Z,19.06
2023-07-29T04:13:18.454Z,19.09
2023-07-29T04:15:46.853Z,19.02
2023-07-29T04:18:14.772Z,18.95
2023-07-29T04:20:44.004Z,18.94
2023-07-29T04:23:11.913Z,18.92
2023-07-29T04:25:41.344Z,19.01
2023-07-29T04:28:09.269Z,18.88
2023-07-29T04:30:37.162Z,18.72
2023-07-29T04:33:05.515Z,18.62
2023-07-29T04:35:33.444Z,18.64
2023-07-29T04:38:01.324Z,18.64
2023-07-29T04:40:29.222Z,18.64
2023-07-29T04:42:58.576Z,18.58
2023-07-29T04:45:30.550Z,18.62
2023-07-29T04:47:58.698Z,18.43
2023-07-29T04:50:26.643Z,18.36
2023-07-29T04:52:54.982Z,18.29
2023-07-29T04:55:22.837Z,18.31
2023-07-29T04:57:50.710Z,18.36
2023-07-29T05:00:20.290Z,18.34
2023-07-29T05:02:48.222Z,18.43
2023-07-29T05:05:16.124Z,18.45
2023-07-29T05:07:44.465Z,18.52
2023-07-29T05:10:12.517Z,18.68
2023-07-29T05:12:40.393Z,18.88
2023-07-29T05:15:09.766Z,18.95
2023-07-29T05:17:39.288Z,19.11
2023-07-29T05:20:08.984Z,19.01
2023-07-29T05:22:36.926Z,19.13
2023-07-29T05:25:05.409Z,19.24
2023-07-29T05:27:33.329Z,19.29
2023-07-29T05:30:01.198Z,19.24
2023-07-29T05:32:29.145Z,19.18
2023-07-29T05:34:58.435Z,19.09
2023-07-29T05:37:26.338Z,19.06
2023-07-29T05:39:54.221Z,19.12
2023-07-29T05:42:22.119Z,19.15
2023-07-29T05:44:50.038Z,19.13
2023-07-29T05:47:17.961Z,19.34
2023-07-29T05:49:45.934Z,19.56
2023-07-29T05:52:15.428Z,19.62
2023-07-29T05:54:43.771Z,19.59
2023-07-29T05:57:13.251Z,19.56
2023-07-29T05:59:41.192Z,19.49
2023-07-29T06:02:09.830Z,19.50
2023-07-29T06:04:37.978Z,19.43
2023-07-29T06:07:06.601Z,19.66
2023-07-29T06:09:35.954Z,20.26
2023-07-29T06:12:04.695Z,20.28
2023-07-29T06:14:32.611Z,20.12
2023-07-29T06:17:00.564Z,19.85
2023-07-29T06:19:28.478Z,19.63
2023-07-29T06:21:57.497Z,19.42
2023-07-29T06:24:25.324Z,19.40
2023-07-29T06:26:54.849Z,19.50
2023-07-29T06:29:22.702Z,19.67
2023-07-29T06:31:52.396Z,19.63
2023-07-29T06:34:20.470Z,19.64
2023-07-29T06:36:48.357Z,19.90
2023-07-29T06:39:16.193Z,19.74
2023-07-29T06:41:44.071Z,19.66
2023-07-29T06:44:14.639Z,19.70
2023-07-29T06:46:42.622Z,19.81
2023-07-29T06:49:10.638Z,19.87
2023-07-29T06:51:38.573Z,19.91
2023-07-29T06:54:06.437Z,19.77
2023-07-29T06:56:34.491Z,19.78
2023-07-29T06:59:02.532Z,20.56
2023-07-29T07:01:31.824Z,21.11
2023-07-29T07:03:59.839Z,20.93
2023-07-29T07:06:27.811Z,21.22
2023-07-29T07:08:55.675Z,21.28
2023-07-29T07:11:23.574Z,21.17
2023-07-29T07:13:51.413Z,21.30
2023-07-29T07:16:19.274Z,21.94
2023-07-29T07:18:48.577Z,23.07
2023-07-29T07:21:16.454Z,24.74
2023-07-29T07:23:44.318Z,26.45
2023-07-29T07:26:12.236Z,26.93
2023-07-29T07:28:40.090Z,27.27
2023-07-29T07:31:10.806Z,26.17
2023-07-29T07:33:38.969Z,24.82
2023-07-29T07:36:08.326Z,24.99
2023-07-29T07:38:36.293Z,25.76
2023-07-29T07:41:04.138Z,25.25
2023-07-29T07:43:32.691Z,24.92
2023-07-29T07:46:01.647Z,24.02
2023-07-29T07:48:29.599Z,23.22
2023-07-29T07:50:57.649Z,23.29
2023-07-29T07:53:27.712Z,22.87
2023-07-29T07:55:55.627Z,22.56
2023-07-29T07:58:23.454Z,22.39
2023-07-29T08:00:51.437Z,22.09
2023-07-29T08:03:19.996Z,21.88
2023-07-29T08:05:47.962Z,21.59
2023-07-29T08:08:15.809Z,21.86
2023-07-29T08:10:45.026Z,21.96
2023-07-29T08:13:12.888Z,21.75
2023-07-29T08:15:42.150Z,21.69
2023-07-29T08:18:10.054Z,22.67
2023-07-29T08:20:37.912Z,23.10
2023-07-29T08:23:05.833Z,23.22
2023-07-29T08:25:33.695Z,23.17
2023-07-29T08:28:02.959Z,23.69
2023-07-29T08:30:30.863Z,24.13
2023-07-29T08:32:58.966Z,24.00
2023-07-29T08:35:26.821Z,23.93
2023-07-29T08:37:54.702Z,23.76
2023-07-29T08:40:29.512Z,24.14
2023-07-29T08:43:00.246Z,24.64
2023-07-29T08:45:30.069Z,24.47
2023-07-29T08:48:00.805Z,24.51
2023-07-29T08:50:28.896Z,24.26
2023-07-29T08:52:57.729Z,23.86
2023-07-29T08:55:25.517Z,23.01
2023-07-29T08:57:54.101Z,22.86
2023-07-29T09:00:22.677Z,22.76
2023-07-29T09:02:52.017Z,22.53
2023-07-29T09:05:20.566Z,22.08
2023-07-29T09:07:49.884Z,22.02
2023-07-29T09:10:17.790Z,21.81
2023-07-29T09:12:45.702Z,21.75
2023-07-29T09:15:13.585Z,21.74
2023-07-29T09:17:42.903Z,21.82
2023-07-29T09:20:13.642Z,21.68
2023-07-29T09:22:41.542Z,21.41
2023-07-29T09:25:10.313Z,21.02
2023-07-29T09:27:40.690Z,20.80
2023-07-29T09:30:17.243Z,20.77
2023-07-29T09:32:45.248Z,20.77
2023-07-29T09:35:14.897Z,20.82
2023-07-29T09:37:42.890Z,20.69
2023-07-29T09:40:16.141Z,20.36
2023-07-29T09:42:50.785Z,20.29
2023-07-29T09:45:23.210Z,20.45
2023-07-29T09:47:51.863Z,20.45
2023-07-29T09:50:25.078Z,20.42
2023-07-29T09:52:53.772Z,20.46
2023-07-29T09:55:23.365Z,20.46
2023-07-29T09:57:55.776Z,20.46
2023-07-29T10:00:23.720Z,20.75
2023-07-29T10:02:52.090Z,20.86
2023-07-29T10:05:24.088Z,20.97
2023-07-29T10:07:52.458Z,22.49
2023-07-29T10:10:20.364Z,23.93
2023-07-29T10:12:48.711Z,25.19
2023-07-29T10:15:16.637Z,25.33
2023-07-29T10:17:45.631Z,25.56
2023-07-29T10:20:14.913Z,25.08
2023-07-29T10:22:48.153Z,24.71
2023-07-29T10:25:20.660Z,23.79
2023-07-29T10:27:51.359Z,23.92
2023-07-29T10:30:19.416Z,24.33
2023-07-29T10:32:48.250Z,24.00
2023-07-29T10:35:16.292Z,23.80
2023-07-29T10:37:46.624Z,24.02
2023-07-29T10:40:14.660Z,24.13
2023-07-29T10:43:04.082Z,25.33
2023-07-29T10:45:40.143Z,25.79
2023-07-29T10:48:09.794Z,26.01
2023-07-29T10:50:37.719Z,26.59
2023-07-29T10:53:07.127Z,26.63
2023-07-29T10:55:37.714Z,26.82
2023-07-29T10:58:15.373Z,26.92
2023-07-29T11:00:45.213Z,26.75
2023-07-29T11:03:15.723Z,27.12
2023-07-29T11:05:49.365Z,25.97
2023-07-29T11:08:24.134Z,25.07
2023-07-29T11:11:04.583Z,24.94
2023-07-29T11:13:33.492Z,25.73
2023-07-29T11:16:02.554Z,26.51
2023-07-29T11:18:32.435Z,26.14
2023-07-29T11:21:00.771Z,25.73
2023-07-29T11:23:34.426Z,25.59
2023-07-29T11:26:02.656Z,25.50
2023-07-29T11:28:31.144Z,26.00
2023-07-29T11:30:59.714Z,27.07
2023-07-29T11:33:29.438Z,26.67
2023-07-29T11:35:57.956Z,26.90
2023-07-29T11:38:25.864Z,27.09
2023-07-29T11:41:04.242Z,27.39
2023-07-29T11:43:32.144Z,27.40
2023-07-29T11:46:03.256Z,27.49
2023-07-29T11:48:34.599Z,27.70
2023-07-29T11:51:04.536Z,28.48
2023-07-29T11:53:33.000Z,28.26
2023-07-29T11:56:02.451Z,28.35
2023-07-29T11:58:30.549Z,27.82
2023-07-29T12:00:58.469Z,28.08
2023-07-29T12:03:28.158Z,28.31
2023-07-29T12:05:56.430Z,28.12
2023-07-29T12:08:24.628Z,28.51
2023-07-29T12:10:52.627Z,28.86
2023-07-29T12:13:26.103Z,27.77
2023-07-29T12:15:54.994Z,26.89
2023-07-29T12:18:32.118Z,25.49
2023-07-29T12:21:00.209Z,25.07
2023-07-29T12:23:28.630Z,24.69
2023-07-29T12:25:59.476Z,24.27
2023-07-29T12:28:29.158Z,24.03
2023-07-29T12:30:57.822Z,23.82
2023-07-29T12:33:32.692Z,23.76
2023-07-29T12:36:00.879Z,23.51
2023-07-29T12:38:29.500Z,23.18
2023-07-29T12:40:57.652Z,22.61
2023-07-29T12:43:26.870Z,22.19
2023-07-29T12:45:56.162Z,21.85
2023-07-29T12:48:24.025Z,21.50
2023-07-29T12:50:52.804Z,21.38
2023-07-29T12:53:20.757Z,21.26
2023-07-29T12:55:48.674Z,21.22
2023-07-29T12:58:16.532Z,20.97
2023-07-29T13:00:44.442Z,20.57
2023-07-29T13:03:13.814Z,20.15
2023-07-29T13:05:41.915Z,19.84
2023-07-29T13:08:14.304Z,19.97
2023-07-29T13:10:42.201Z,20.01
2023-07-29T13:13:10.045Z,20.05
2023-07-29T13:15:38.132Z,20.14
2023-07-29T13:18:06.164Z,20.11
2023-07-29T13:20:35.861Z,20.21
2023-07-29T13:23:03.701Z,20.38
2023-07-29T13:25:31.991Z,20.46
2023-07-29T13:28:00.089Z,20.52
2023-07-29T13:30:28.546Z,20.59
2023-07-29T13:32:56.485Z,20.75
2023-07-29T13:35:24.494Z,20.85
2023-07-29T13:37:53.725Z,20.86
2023-07-29T13:40:21.649Z,21.11
2023-07-29T13:42:49.532Z,21.26
2023-07-29T13:45:17.532Z,21.33
2023-07-29T13:47:45.551Z,21.51
2023-07-29T13:50:13.480Z,21.67
2023-07-29T13:52:41.354Z,21.65
2023-07-29T13:55:12.526Z,21.61
2023-07-29T13:57:40.943Z,21.45
2023-07-29T14:00:10.276Z,21.55
2023-07-29T14:02:41.206Z,21.82
2023-07-29T14:05:10.011Z,21.86
2023-07-29T14:07:37.998Z,21.75
2023-07-29T14:10:06.519Z,21.61
2023-07-29T14:12:35.893Z,21.58
2023-07-29T14:15:03.854Z,21.47
2023-07-29T14:17:31.781Z,21.68
2023-07-29T14:19:59.720Z,21.28
2023-07-29T14:22:27.606Z,21.48
2023-07-29T14:24:56.004Z,21.51
2023-07-29T14:27:24.631Z,21.33
2023-07-29T14:29:53.893Z,21.37
2023-07-29T14:32:23.688Z,21.55
2023-07-29T14:34:51.890Z,21.59
2023-07-29T14:37:19.745Z,21.64
2023-07-29T14:39:47.637Z,21.31
2023-07-29T14:42:15.927Z,21.51
2023-07-29T14:44:44.749Z,21.53
2023-07-29T14:47:13.997Z,21.31
2023-07-29T14:49:41.928Z,21.17
2023-07-29T14:52:10.076Z,21.06
2023-07-29T14:54:37.971Z,21.04
2023-07-29T14:57:08.376Z,21.06
2023-07-29T14:59:36.259Z,21.06
2023-07-29T15:02:04.242Z,21.08
2023-07-29T15:04:33.519Z,20.99
2023-07-29T15:07:01.479Z,20.94
2023-07-29T15:09:29.382Z,20.99
2023-07-29T15:11:59.338Z,20.93
2023-07-29T15:14:27.474Z,20.85
2023-07-29T15:16:55.342Z,20.93
2023-07-29T15:19:23.261Z,21.08
2023-07-29T15:21:52.481Z,21.30
2023-07-29T15:24:20.355Z,21.55
2023-07-29T15:26:48.199Z,21.77
2023-07-29T15:29:16.071Z,22.02
2023-07-29T15:31:44.187Z,22.06
2023-07-29T15:34:12.048Z,22.23
2023-07-29T15:36:39.927Z,22.30
2023-07-29T15:39:09.722Z,22.49
2023-07-29T15:41:37.684Z,22.33
2023-07-29T15:44:05.911Z,22.36
2023-07-29T15:46:34.002Z,22.52
2023-07-29T15:49:01.924Z,22.60
2023-07-29T15:51:29.869Z,22.66
2023-07-29T15:53:57.735Z,22.50
2023-07-29T15:56:29.166Z,22.60
2023-07-29T15:58:57.064Z,22.55
2023-07-29T16:01:25.256Z,22.52
2023-07-29T16:03:53.194Z,22.43
2023-07-29T16:06:21.172Z,22.47
2023-07-29T16:08:49.091Z,22.43
2023-07-29T16:11:16.961Z,22.40
2023-07-29T16:13:46.202Z,22.29
2023-07-29T16:16:14.078Z,22.16
2023-07-29T16:18:42.008Z,22.17
2023-07-29T16:21:09.873Z,21.96
2023-07-29T16:23:38.555Z,21.88
2023-07-29T16:26:06.428Z,21.86
2023-07-29T16:28:34.520Z,21.96
2023-07-29T16:31:04.868Z,21.94
2023-07-29T16:33:32.878Z,21.77
2023-07-29T16:36:00.740Z,21.61
2023-07-29T16:38:28.632Z,21.54
2023-07-29T16:41:08.735Z,21.53
2023-07-29T16:43:39.021Z,21.53
2023-07-29T16:46:08.390Z,21.43
2023-07-29T16:48:36.609Z,21.40
2023-07-29T16:51:04.878Z,21.45
2023-07-29T16:53:32.797Z,21.64
2023-07-29T16:56:01.281Z,21.57
2023-07-29T16:58:29.263Z,21.55
2023-07-29T17:00:57.116Z,21.41
2023-07-29T17:03:26.388Z,21.22
2023-07-29T17:05:56.968Z,20.90
2023-07-29T17:08:24.862Z,20.35
2023-07-29T17:10:52.767Z,20.00
2023-07-29T17:13:20.625Z,19.62
2023-07-29T17:15:48.822Z,19.40
2023-07-29T17:18:16.913Z,19.26
2023-07-29T17:20:46.147Z,19.20
2023-07-29T17:23:14.001Z,19.43
2023-07-29T17:25:41.895Z,19.32
2023-07-29T17:28:09.895Z,19.20
2023-07-29T17:30:37.783Z,19.24
2023-07-29T17:33:05.916Z,19.24
2023-07-29T17:35:33.821Z,19.32
2023-07-29T17:38:03.711Z,19.30
2023-07-29T17:40:31.608Z,19.37
2023-07-29T17:42:59.464Z,19.43
2023-07-29T17:45:27.326Z,19.43
2023-07-29T17:47:55.421Z,19.42
2023-07-29T17:50:23.872Z,19.37
2023-07-29T17:52:51.957Z,19.33
2023-07-29T17:55:21.206Z,19.27
2023-07-29T17:57:49.111Z,19.27
2023-07-29T18:00:17.123Z,19.18
2023-07-29T18:02:45.078Z,19.12
2023-07-29T18:05:13.154Z,19.26
2023-07-29T18:07:41.070Z,19.26
2023-07-29T18:10:10.664Z,19.23
2023-07-29T18:12:42.838Z,19.27
2023-07-29T18:15:11.718Z,19.29
2023-07-29T18:17:39.829Z,19.24
2023-07-29T18:20:08.777Z,19.30
2023-07-29T18:22:36.696Z,19.29
2023-07-29T18:25:04.719Z,19.39
2023-07-29T18:27:32.786Z,19.39
2023-07-29T18:30:02.021Z,19.40
2023-07-29T18:32:29.993Z,19.30
2023-07-29T18:34:57.926Z,19.30
2023-07-29T18:37:25.814Z,19.26
2023-07-29T18:39:53.681Z,19.36
2023-07-29T18:42:21.936Z,19.27
2023-07-29T18:44:49.875Z,19.30
2023-07-29T18:47:19.083Z,19.22
2023-07-29T18:49:46.965Z,19.19
2023-07-29T18:52:14.929Z,19.12
2023-07-29T18:54:44.858Z,19.12
2023-07-29T18:57:13.232Z,19.13
2023-07-29T18:59:41.135Z,19.11
2023-07-29T19:02:09.274Z,19.05
2023-07-29T19:04:38.551Z,18.92
2023-07-29T19:07:07.174Z,18.91
2023-07-29T19:09:35.020Z,18.89
2023-07-29T19:12:02.911Z,18.84
2023-07-29T19:14:30.798Z,18.81
2023-07-29T19:16:58.737Z,18.72
2023-07-29T19:19:26.717Z,18.71
2023-07-29T19:21:55.920Z,18.68
2023-07-29T19:24:23.900Z,18.61
2023-07-29T19:26:52.465Z,18.57
2023-07-29T19:29:20.272Z,18.55
2023-07-29T19:31:48.192Z,18.51
2023-07-29T19:34:16.068Z,18.50
2023-07-29T19:36:43.951Z,18.45
2023-07-29T19:39:13.170Z,18.48
2023-07-29T19:41:41.075Z,18.47
2023-07-29T19:44:20.532Z,18.48
2023-07-29T19:46:50.834Z,18.40
2023-07-29T19:49:18.847Z,18.38
2023-07-29T19:51:46.704Z,18.40
2023-07-29T19:54:15.916Z,18.34
2023-07-29T19:56:43.788Z,18.34
2023-07-29T19:59:11.733Z,18.37
2023-07-29T20:01:39.854Z,18.37
2023-07-29T20:04:08.095Z,18.36
2023-07-29T20:06:36.029Z,18.31
2023-07-29T20:09:04.034Z,18.21
2023-07-29T20:11:33.303Z,18.21
2023-07-29T20:14:01.181Z,18.17
2023-07-29T20:16:29.937Z,18.10
2023-07-29T20:18:57.854Z,17.97
2023-07-29T20:21:25.731Z,17.99
2023-07-29T20:23:55.484Z,17.86
2023-07-29T20:26:23.457Z,17.85
2023-07-29T20:28:52.691Z,17.82
2023-07-29T20:31:20.637Z,17.86
2023-07-29T20:33:48.563Z,17.79
2023-07-29T20:36:16.458Z,17.68
2023-07-29T20:38:44.313Z,17.53
2023-07-29T20:41:12.162Z,17.42
2023-07-29T20:43:41.768Z,17.48
2023-07-29T20:46:20.904Z,17.45
2023-07-29T20:48:48.921Z,17.45
2023-07-29T20:51:18.616Z,17.39
2023-07-29T20:53:47.060Z,17.36
2023-07-29T20:56:15.971Z,17.27
2023-07-29T20:58:43.965Z,17.17
2023-07-29T21:01:11.992Z,17.11
2023-07-29T21:03:41.263Z,17.06
2023-07-29T21:06:11.858Z,16.94
2023-07-29T21:08:40.051Z,16.97
2023-07-29T21:11:08.409Z,16.97
2023-07-29T21:13:36.245Z,16.91
2023-07-29T21:16:04.144Z,16.87
2023-07-29T21:18:32.021Z,16.83
2023-07-29T21:21:01.263Z,16.79
2023-07-29T21:23:29.388Z,16.77
2023-07-29T21:25:57.249Z,16.74
2023-07-29T21:28:25.169Z,16.76
2023-07-29T21:30:53.063Z,16.79
2023-07-29T21:33:20.961Z,16.80
2023-07-29T21:35:49.583Z,16.80
2023-07-29T21:38:29.293Z,16.74
2023-07-29T21:40:58.085Z,16.79
2023-07-29T21:43:26.167Z,16.79
2023-07-29T21:45:54.298Z,16.70
2023-07-29T21:48:22.168Z,16.73
2023-07-29T21:50:51.255Z,16.61
2023-07-29T21:53:20.923Z,16.67
2023-07-29T21:55:48.970Z,16.67
2023-07-29T21:58:16.930Z,16.55
2023-07-29T22:00:44.801Z,16.55
2023-07-29T22:03:12.712Z,16.47
2023-07-29T22:05:40.644Z,16.49
2023-07-29T22:08:08.513Z,16.50
2023-07-29T22:10:40.929Z,16.55
2023-07-29T22:13:08.834Z,16.50
2023-07-29T22:15:37.622Z,16.40
2023-07-29T22:18:05.827Z,16.29
2023-07-29T22:20:33.841Z,16.23
2023-07-29T22:23:01.703Z,16.18
2023-07-29T22:25:29.615Z,16.10
2023-07-29T22:27:59.073Z,16.08
2023-07-29T22:30:27.004Z,16.19
2023-07-29T22:32:55.054Z,16.13
2023-07-29T22:35:23.072Z,16.15
2023-07-29T22:37:50.956Z,16.18
2023-07-29T22:40:20.360Z,16.16
2023-07-29T22:42:48.233Z,16.50
2023-07-29T22:45:17.534Z,16.53
2023-07-29T22:47:45.345Z,16.57
2023-07-29T22:50:13.279Z,16.60
2023-07-29T22:52:41.131Z,16.69
2023-07-29T22:55:09.665Z,16.66
2023-07-29T22:57:37.538Z,16.76
2023-07-29T23:00:06.517Z,16.80
2023-07-29T23:02:35.815Z,16.80
2023-07-29T23:05:03.766Z,16.84
2023-07-29T23:07:31.710Z,16.88
2023-07-29T23:09:59.571Z,16.70
2023-07-29T23:12:27.448Z,16.70
2023-07-29T23:14:55.399Z,16.79
2023-07-29T23:17:23.353Z,16.81
2023-07-29T23:19:52.862Z,16.74
2023-07-29T23:22:20.738Z,16.80
2023-07-29T23:24:48.621Z,16.84
2023-07-29T23:27:16.476Z,16.91
2023-07-29T23:29:44.365Z,16.90
2023-07-29T23:32:12.284Z,16.87
2023-07-29T23:34:40.372Z,16.95
2023-07-29T23:37:09.623Z,16.87
2023-07-29T23:39:37.477Z,16.90
2023-07-29T23:42:05.978Z,16.94
2023-07-29T23:44:33.929Z,17.12
2023-07-29T23:47:01.818Z,17.06
2023-07-29T23:49:29.721Z,17.07
2023-07-29T23:51:57.596Z,17.10
2023-07-29T23:54:26.901Z,17.01
2023-07-29T23:56:54.811Z,16.92
2023-07-29T23:59:22.623Z,16.81
